Latest Coastal Weather Observations for Thursday Island

IDQ60701

Issued at 9:52 pm EST Sunday 26 May 2024 (issued every 10 minutes, with the page automatically refreshed every 10 minutes)

About coastal observations | Map of coastal stations | Coastal observations for QLD | Marine services | Other Formats
Station Details ID: 200892 Name: TORRES STRAIT NTC AWS Lat: -10.59 Lon: 142.22 Height: 3.0 m
Data from the previous 72 hours. | See also: Recent months for locations in Queensland
Date/Time
EST
Wind Sea
Height
m
Swell Vis
km
Cloud Weather Temp
°C
Press
MSL
hPa
Rain since
9am
mm
Dir  Spd
kts
Gust
kts
Height
m
Period
s
Dir
26/09:30pm SE 17 23 - - - - - - - - 1011.8 -
26/09:00pm SE 18 24 - - - - - - - - 1011.6 -
26/08:30pm SE 21 27 - - - - - - - - 1011.6 -
26/08:00pm SE 18 23 - - - - - - - - 1011.3 -
26/07:30pm SE 17 22 - - - - - - - - 1011.2 -
26/07:00pm SE 19 27 - - - - - - - - 1010.9 -
26/06:30pm SE 18 23 - - - - - - - - 1010.5 -
26/06:00pm SE 16 22 - - - - - - - - 1010.0 -
26/05:30pm SE 19 25 - - - - - - - - 1009.8 -
26/05:00pm SE 18 23 - - - - - - - - 1009.7 -
26/04:30pm SE 19 24 - - - - - - - - 1009.4 -
26/04:00pm SE 18 24 - - - - - - - - 1009.3 -
26/03:30pm SE 21 28 - - - - - - - - 1009.6 -
26/03:09pm SE 17 27 - - - - - - - - 1009.7 -
26/03:00pm SE 19 27 - - - - - - - - 1009.8 -
26/02:30pm SE 21 28 - - - - - - - - 1010.0 -
26/02:00pm SE 18 26 - - - - - - - - 1010.3 -
26/01:30pm SE 22 28 - - - - - - - - 1010.7 -
26/01:00pm SE 19 23 - - - - - - - - 1011.2 -
26/12:30pm SE 21 29 - - - - - - - - 1011.6 -
26/12:00pm SE 19 27 - - - - - - - - 1011.8 -
26/11:30am SE 19 25 - - - - - - - - 1012.0 -
26/11:00am SE 18 22 - - - - - - - - 1012.2 -
26/10:30am SE 19 25 - - - - - - - - 1012.1 -
26/10:00am SE 19 24 - - - - - - - - 1012.2 -
26/09:30am SE 20 29 - - - - - - - - 1012.3 -
26/09:00am SE 17 23 - - - - - - - - 1012.1 -
26/08:30am SE 19 28 - - - - - - - - 1011.7 -
26/08:00am SE 18 23 - - - - - - - - 1011.3 -
26/07:30am SE 17 23 - - - - - - - - 1011.0 -
26/07:00am SE 19 24 - - - - - - - - 1010.9 -
26/06:30am SE 16 23 - - - - - - - - 1010.6 -
26/06:00am SE 18 24 - - - - - - - - 1010.3 -
26/05:30am SE 15 21 - - - - - - - - 1010.2 -
26/05:00am SE 13 18 - - - - - - - - 1010.2 -
26/04:30am SE 15 21 - - - - - - - - 1010.2 -
26/04:00am SE 14 19 - - - - - - - - 1010.2 -
26/03:30am SE 16 20 - - - - - - - - 1010.1 -
26/03:00am SE 17 23 - - - - - - - - 1010.3 -
26/02:30am SE 16 24 - - - - - - - - 1010.3 -
26/02:00am SE 15 22 - - - - - - - - 1010.6 -
26/01:30am SE 19 24 - - - - - - - - 1010.9 -
26/01:00am SE 16 20 - - - - - - - - 1011.4 -
26/12:30am SE 14 18 - - - - - - - - 1011.5 -
26/12:00am SE 19 25 - - - - - - - - 1011.6 -
 
Date/Time
EST
Wind Sea
Height
m
Swell Vis
km
Cloud Weather Temp
°C
Press
MSL
hPa
Rain since
9am
mm
Dir  Spd
kts
Gust
kts
Height
m
Period
s
Dir
25/11:30pm SE 17 22 - - - - - - - - 1011.9 -
25/11:00pm SE 18 26 - - - - - - - - 1012.0 -
25/10:30pm SE 17 23 - - - - - - - - 1012.0 -
25/10:00pm SE 14 18 - - - - - - - - 1012.0 -
25/09:30pm SE 16 21 - - - - - - - - 1012.0 -
25/09:00pm SE 17 22 - - - - - - - - 1011.6 -
25/08:30pm SE 15 22 - - - - - - - - 1011.3 -
25/08:00pm SE 17 21 - - - - - - - - 1011.0 -
25/07:30pm SE 15 19 - - - - - - - - 1010.4 -
25/07:00pm SE 16 20 - - - - - - - - 1010.0 -
25/06:30pm SE 16 21 - - - - - - - - 1009.9 -
25/06:00pm SE 19 25 - - - - - - - - 1009.6 -
25/05:30pm SE 19 24 - - - - - - - - 1009.5 -
25/05:00pm SE 21 26 - - - - - - - - 1009.2 -
25/04:30pm SE 21 27 - - - - - - - - 1009.3 -
25/04:00pm SE 20 28 - - - - - - - - 1009.2 -
25/03:30pm SE 21 28 - - - - - - - - 1009.1 -
25/03:00pm ESE 21 27 - - - - - - - - 1009.4 -
25/02:30pm SE 23 28 - - - - - - - - 1009.6 -
25/02:16pm ESE 22 32 - - - - - - - - 1009.9 -
25/02:00pm ESE 23 31 - - - - - - - - 1010.2 -
25/01:30pm SE 24 30 - - - - - - - - 1010.6 -
25/01:00pm ESE 22 28 - - - - - - - - 1010.8 -
25/12:30pm ESE 23 28 - - - - - - - - 1011.3 -
25/12:00pm SE 24 30 - - - - - - - - 1011.4 -
25/11:30am SE 23 30 - - - - - - - - 1011.7 -
25/11:01am ESE 23 34 - - - - - - - - 1012.0 -
25/11:00am ESE 22 30 - - - - - - - - 1012.0 -
25/10:30am SE 21 27 - - - - - - - - 1012.2 -
25/10:00am SE 21 28 - - - - - - - - 1012.2 -
25/09:32am SE 22 32 - - - - - - - - 1012.0 -
25/09:30am SE 20 28 - - - - - - - - 1011.9 -
25/09:00am SE 21 28 - - - - - - - - 1012.0 -
25/08:30am SE 19 26 - - - - - - - - 1011.4 -
25/08:00am SE 20 26 - - - - - - - - 1011.2 -
25/07:30am SE 17 23 - - - - - - - - 1011.0 -
25/07:26am SE 17 28 - - - - - - - - 1010.9 -
25/07:00am SE 18 25 - - - - - - - - 1010.8 -
25/06:30am SE 17 23 - - - - - - - - 1010.6 -
25/06:00am SE 18 24 - - - - - - - - 1010.3 -
25/05:30am SE 17 21 - - - - - - - - 1010.0 -
25/05:00am SE 17 25 - - - - - - - - 1010.1 -
25/04:30am SE 17 23 - - - - - - - - 1010.0 -
25/04:00am SE 18 23 - - - - - - - - 1010.0 -
25/03:30am SE 18 23 - - - - - - - - 1009.9 -
25/03:00am SE 17 23 - - - - - - - - 1010.0 -
25/02:30am SE 16 23 - - - - - - - - 1010.3 -
25/02:00am SE 18 26 - - - - - - - - 1010.5 -
25/01:30am SE 18 23 - - - - - - - - 1010.9 -
25/01:00am SE 19 28 - - - - - - - - 1011.2 -
25/12:30am SE 16 22 - - - - - - - - 1011.4 -
25/12:00am SE 19 27 - - - - - - - - 1011.5 -
 
Date/Time
EST
Wind Sea
Height
m
Swell Vis
km
Cloud Weather Temp
°C
Press
MSL
hPa
Rain since
9am
mm
Dir  Spd
kts
Gust
kts
Height
m
Period
s
Dir
24/11:30pm SE 17 23 - - - - - - - - 1011.6 -
24/11:19pm SE 18 29 - - - - - - - - 1011.7 -
24/11:00pm SE 19 25 - - - - - - - - 1011.5 -
24/10:30pm SE 18 26 - - - - - - - - 1011.6 -
24/10:00pm SE 20 25 - - - - - - - - 1011.5 -
24/09:30pm SE 17 24 - - - - - - - - 1011.0 -
24/09:17pm SE 20 30 - - - - - - - - 1011.0 -
24/09:00pm SE 21 28 - - - - - - - - 1010.9 -
24/08:30pm SE 19 26 - - - - - - - - 1010.6 -
24/08:00pm SE 18 24 - - - - - - - - 1010.3 -
24/07:30pm SE 19 26 - - - - - - - - 1010.0 -
24/07:00pm SE 20 26 - - - - - - - - 1009.6 -
24/06:30pm SE 16 22 - - - - - - - - 1009.4 -
24/06:00pm SE 18 22 - - - - - - - - 1009.1 -
24/05:30pm SE 22 27 - - - - - - - - 1008.8 -
24/05:00pm SE 19 25 - - - - - - - - 1008.3 -
24/04:30pm SE 20 26 - - - - - - - - 1008.5 -
24/04:00pm SE 20 27 - - - - - - - - 1008.5 -
24/03:30pm ESE 22 28 - - - - - - - - 1008.3 -
24/03:00pm ESE 21 28 - - - - - - - - 1008.5 -
24/02:30pm SE 22 30 - - - - - - - - 1008.7 -
24/02:00pm ESE 23 29 - - - - - - - - 1008.9 -
24/01:35pm SE 23 35 - - - - - - - - 1009.2 -
24/01:30pm SE 22 28 - - - - - - - - 1009.3 -
24/01:00pm ESE 23 32 - - - - - - - - 1009.6 -
24/12:30pm ESE 22 31 - - - - - - - - 1010.0 -
24/12:00pm ESE 21 28 - - - - - - - - 1010.3 -
24/11:30am SE 22 28 - - - - - - - - 1010.6 -
24/11:00am ESE 19 24 - - - - - - - - 1010.8 -
24/10:37am SE 20 31 - - - - - - - - 1011.2 -
24/10:30am SE 17 23 - - - - - - - - 1011.3 -
24/10:00am SE 18 23 - - - - - - - - 1011.5 -
24/09:30am SE 13 17 - - - - - - - - 1011.3 -
24/09:00am SE 16 21 - - - - - - - - 1011.2 -
24/08:30am SE 15 20 - - - - - - - - 1011.1 -
24/08:00am SE 16 21 - - - - - - - - 1011.1 -
24/07:30am SE 12 17 - - - - - - - - 1010.7 -
24/07:00am SE 13 16 - - - - - - - - 1010.5 -
24/06:30am SE 12 15 - - - - - - - - 1010.1 -
24/06:00am SSE 14 17 - - - - - - - - 1010.0 -
24/05:30am SE 16 19 - - - - - - - - 1009.9 -
24/05:00am SE 13 16 - - - - - - - - 1009.9 -
24/04:30am SE 11 14 - - - - - - - - 1009.9 -
24/04:00am SSE 13 18 - - - - - - - - 1010.1 -
24/03:30am SE 11 14 - - - - - - - - 1010.4 -
24/03:00am SSE 12 15 - - - - - - - - 1010.7 -
24/02:30am SSE 12 15 - - - - - - - - 1010.9 -
24/02:00am SSE 13 16 - - - - - - - - 1011.0 -
24/01:30am SE 14 17 - - - - - - - - 1011.1 -
24/01:00am SE 16 21 - - - - - - - - 1011.2 -
24/12:30am SSE 17 22 - - - - - - - - 1011.3 -
24/12:00am SE 20 25 - - - - - - - - 1011.4 -
 
Date/Time
EST
Wind Sea
Height
m
Swell Vis
km
Cloud Weather Temp
°C
Press
MSL
hPa
Rain since
9am
mm
Dir  Spd
kts
Gust
kts
Height
m
Period
s
Dir
23/11:30pm SE 17 23 - - - - - - - - 1011.5 -
23/11:00pm SE 17 22 - - - - - - - - 1011.6 -
23/10:30pm SE 16 23 - - - - - - - - 1011.9 -
23/10:00pm SE 19 25 - - - - - - - - 1012.1 -

Other formats

Comma delimited format used in spreadsheet applications
http://www.bom.gov.au/fwo/IDQ60701/IDQ60701.94181.axf

JavaScript Object Notation format (JSON) in row-major order
http://www.bom.gov.au/fwo/IDQ60701/IDQ60701.94181.json

Data quality

Most of these data are generated automatically and are frequently updated. Quality checks on data are not normally performed. It is possible for incorrect values to appear. Refer to information at About Latest Weather Observations and please check the disclaimer before using these data.